sensor_id;sensor_type;location;lat;lon;timestamp;pressure;altitude;pressure_sealevel;temperature;humidity
22440;BME280;11387;51.612;7.210;2023-04-19T00:00:16;101845.19;;;9.84;77.89
22440;BME280;11387;51.612;7.210;2023-04-19T00:02:45;101835.91;;;9.85;78.01
22440;BME280;11387;51.612;7.210;2023-04-19T00:05:15;101841.34;;;9.80;78.48
22440;BME280;11387;51.612;7.210;2023-04-19T00:07:44;101837.59;;;9.91;77.88
22440;BME280;11387;51.612;7.210;2023-04-19T00:10:13;101836.75;;;9.86;78.21
22440;BME280;11387;51.612;7.210;2023-04-19T00:12:43;101832.31;;;9.79;78.39
22440;BME280;11387;51.612;7.210;2023-04-19T00:15:11;101834.22;;;9.79;78.75
22440;BME280;11387;51.612;7.210;2023-04-19T00:17:39;101837.88;;;9.90;78.76
22440;BME280;11387;51.612;7.210;2023-04-19T00:20:08;101829.06;;;9.77;78.92
22440;BME280;11387;51.612;7.210;2023-04-19T00:22:38;101823.59;;;9.77;79.06
22440;BME280;11387;51.612;7.210;2023-04-19T00:25:06;101832.06;;;9.81;79.12
22440;BME280;11387;51.612;7.210;2023-04-19T00:27:35;101826.84;;;9.79;79.23
22440;BME280;11387;51.612;7.210;2023-04-19T00:30:18;101823.59;;;9.77;79.43
22440;BME280;11387;51.612;7.210;2023-04-19T00:32:46;101823.63;;;9.88;79.19
22440;BME280;11387;51.612;7.210;2023-04-19T00:35:34;101817.03;;;9.84;79.65
22440;BME280;11387;51.612;7.210;2023-04-19T00:38:03;101818.41;;;9.81;79.68
22440;BME280;11387;51.612;7.210;2023-04-19T00:40:31;101817.03;;;9.84;79.73
22440;BME280;11387;51.612;7.210;2023-04-19T00:42:59;101813.78;;;9.87;79.79
22440;BME280;11387;51.612;7.210;2023-04-19T00:45:29;101804.16;;;9.79;79.96
22440;BME280;11387;51.612;7.210;2023-04-19T00:47:59;101814.84;;;9.75;80.17
22440;BME280;11387;51.612;7.210;2023-04-19T00:50:28;101813.50;;;9.78;80.03
22440;BME280;11387;51.612;7.210;2023-04-19T00:52:56;101815.41;;;9.83;80.01
22440;BME280;11387;51.612;7.210;2023-04-19T00:55:25;101815.41;;;9.83;80.00
22440;BME280;11387;51.612;7.210;2023-04-19T00:57:53;101818.66;;;9.79;80.24
22440;BME280;11387;51.612;7.210;2023-04-19T01:00:22;101808.03;;;9.78;80.64
22440;BME280;11387;51.612;7.210;2023-04-19T01:02:52;101805.28;;;9.83;80.01
22440;BME280;11387;51.612;7.210;2023-04-19T01:05:21;101815.41;;;9.83;80.22
22440;BME280;11387;51.612;7.210;2023-04-19T01:07:50;101806.38;;;9.82;80.16
22440;BME280;11387;51.612;7.210;2023-04-19T01:10:18;101806.69;;;9.86;80.10
22440;BME280;11387;51.612;7.210;2023-04-19T01:12:46;101811.63;;;9.89;80.13
22440;BME280;11387;51.612;7.210;2023-04-19T01:15:14;101804.00;;;9.96;80.01
22440;BME280;11387;51.612;7.210;2023-04-19T01:18:09;101802.13;;;10.01;79.49
22440;BME280;11387;51.612;7.210;2023-04-19T01:20:37;101801.00;;;9.97;79.63
22440;BME280;11387;51.612;7.210;2023-04-19T01:23:07;101793.84;;;9.86;80.17
22440;BME280;11387;51.612;7.210;2023-04-19T01:25:37;101797.09;;;9.78;80.47
22440;BME280;11387;51.612;7.210;2023-04-19T01:28:06;101785.34;;;9.77;80.26
22440;BME280;11387;51.612;7.210;2023-04-19T01:30:35;101790.25;;;9.75;80.61
22440;BME280;11387;51.612;7.210;2023-04-19T01:33:03;101797.34;;;9.76;80.30
22440;BME280;11387;51.612;7.210;2023-04-19T01:35:31;101789.72;;;9.84;80.11
22440;BME280;11387;51.612;7.210;2023-04-19T01:38:00;101790.78;;;9.77;80.30
22440;BME280;11387;51.612;7.210;2023-04-19T01:40:29;101789.69;;;9.78;79.95
22440;BME280;11387;51.612;7.210;2023-04-19T01:42:58;101795.72;;;9.80;80.01
22440;BME280;11387;51.612;7.210;2023-04-19T01:45:26;101789.16;;;9.76;80.02
22440;BME280;11387;51.612;7.210;2023-04-19T01:47:55;101788.59;;;9.74;80.24
22440;BME280;11387;51.612;7.210;2023-04-19T01:50:25;101786.94;;;9.78;80.28
22440;BME280;11387;51.612;7.210;2023-04-19T01:52:53;101785.84;;;9.79;79.68
22440;BME280;11387;51.612;7.210;2023-04-19T01:55:21;101791.31;;;9.74;79.93
22440;BME280;11387;51.612;7.210;2023-04-19T01:57:51;101797.63;;;9.75;80.31
22440;BME280;11387;51.612;7.210;2023-04-19T02:00:21;101799.22;;;9.71;80.04
22440;BME280;11387;51.612;7.210;2023-04-19T02:02:49;101794.03;;;9.69;80.11
22440;BME280;11387;51.612;7.210;2023-04-19T02:05:18;101786.94;;;9.78;79.73
22440;BME280;11387;51.612;7.210;2023-04-19T02:07:46;101791.88;;;9.82;79.16
22440;BME280;11387;51.612;7.210;2023-04-19T02:10:14;101792.41;;;9.73;79.16
22440;BME280;11387;51.612;7.210;2023-04-19T02:12:42;101791.97;;;9.97;78.21
22440;BME280;11387;51.612;7.210;2023-04-19T02:15:12;101801.25;;;9.91;78.51
22440;BME280;11387;51.612;7.210;2023-04-19T02:17:40;101794.66;;;9.87;78.65
22440;BME280;11387;51.612;7.210;2023-04-19T02:20:09;101792.41;;;9.78;78.66
22440;BME280;11387;51.612;7.210;2023-04-19T02:22:37;101793.72;;;9.66;79.56
22440;BME280;11387;51.612;7.210;2023-04-19T02:25:06;101804.13;;;9.69;79.46
22440;BME280;11387;51.612;7.210;2023-04-19T02:27:49;101791.78;;;9.61;79.94
22440;BME280;11387;51.612;7.210;2023-04-19T02:30:19;101792.56;;;9.57;79.76
22440;BME280;11387;51.612;7.210;2023-04-19T02:32:47;101794.78;;;9.60;79.51
22440;BME280;11387;51.612;7.210;2023-04-19T02:35:15;101803.53;;;9.62;79.42
22440;BME280;11387;51.612;7.210;2023-04-19T02:37:44;101796.19;;;9.67;78.92
22440;BME280;11387;51.612;7.210;2023-04-19T02:40:12;101797.28;;;9.66;78.52
22440;BME280;11387;51.612;7.210;2023-04-19T02:42:40;101798.88;;;9.62;77.98
22440;BME280;11387;51.612;7.210;2023-04-19T02:45:09;101789.09;;;9.66;77.99
22440;BME280;11387;51.612;7.210;2023-04-19T02:47:38;101794.81;;;9.65;76.67
22440;BME280;11387;51.612;7.210;2023-04-19T02:50:07;101796.13;;;9.57;75.92
22440;BME280;11387;51.612;7.210;2023-04-19T02:52:35;101798.84;;;9.57;75.12
22440;BME280;11387;51.612;7.210;2023-04-19T02:55:04;101798.56;;;9.54;74.65
22440;BME280;11387;51.612;7.210;2023-04-19T02:57:33;101800.97;;;9.50;74.41
22440;BME280;11387;51.612;7.210;2023-04-19T03:00:02;101799.88;;;9.46;75.05
22440;BME280;11387;51.612;7.210;2023-04-19T03:02:31;101788.41;;;9.44;74.78
22440;BME280;11387;51.612;7.210;2023-04-19T03:05:02;101800.41;;;9.43;74.80
22440;BME280;11387;51.612;7.210;2023-04-19T03:07:31;101794.59;;;9.34;74.16
22440;BME280;11387;51.612;7.210;2023-04-19T03:09:59;101792.53;;;9.52;73.44
22440;BME280;11387;51.612;7.210;2023-04-19T03:12:27;101799.06;;;9.51;72.28
22440;BME280;11387;51.612;7.210;2023-04-19T03:14:55;101794.94;;;9.43;71.73
22440;BME280;11387;51.612;7.210;2023-04-19T03:17:24;101798.81;;;9.47;71.05
22440;BME280;11387;51.612;7.210;2023-04-19T03:20:09;101793.81;;;9.39;70.48
22440;BME280;11387;51.612;7.210;2023-04-19T03:22:41;101789.91;;;9.30;70.90
22440;BME280;11387;51.612;7.210;2023-04-19T03:25:10;101790.25;;;9.38;70.05
22440;BME280;11387;51.612;7.210;2023-04-19T03:27:39;101789.91;;;9.30;69.75
22440;BME280;11387;51.612;7.210;2023-04-19T03:30:08;101780.84;;;9.24;69.96
22440;BME280;11387;51.612;7.210;2023-04-19T03:32:37;101780.59;;;9.26;70.13
22440;BME280;11387;51.612;7.210;2023-04-19T03:35:06;101777.25;;;9.19;70.64
22440;BME280;11387;51.612;7.210;2023-04-19T03:37:36;101775.69;;;9.28;71.53
22440;BME280;11387;51.612;7.210;2023-04-19T03:40:04;101782.13;;;9.11;72.22
22440;BME280;11387;51.612;7.210;2023-04-19T03:42:37;101782.59;;;9.03;72.68
22440;BME280;11387;51.612;7.210;2023-04-19T03:45:06;101779.66;;;8.78;74.20
22440;BME280;11387;51.612;7.210;2023-04-19T03:47:34;101777.91;;;8.67;75.04
22440;BME280;11387;51.612;7.210;2023-04-19T03:50:02;101775.38;;;8.60;75.65
22440;BME280;11387;51.612;7.210;2023-04-19T03:52:31;101775.41;;;8.38;76.30
22440;BME280;11387;51.612;7.210;2023-04-19T03:55:01;101771.47;;;8.51;76.32
22440;BME280;11387;51.612;7.210;2023-04-19T03:57:29;101777.13;;;8.44;76.31
22440;BME280;11387;51.612;7.210;2023-04-19T03:59:58;101774.97;;;8.47;75.36
22440;BME280;11387;51.612;7.210;2023-04-19T04:02:27;101769.59;;;8.57;75.30
22440;BME280;11387;51.612;7.210;2023-04-19T04:04:59;101781.13;;;8.64;74.69
22440;BME280;11387;51.612;7.210;2023-04-19T04:07:28;101781.13;;;8.64;74.89
22440;BME280;11387;51.612;7.210;2023-04-19T04:09:57;101774.53;;;8.60;75.06
22440;BME280;11387;51.612;7.210;2023-04-19T04:12:31;101787.59;;;8.53;75.08
22440;BME280;11387;51.612;7.210;2023-04-19T04:14:59;101785.97;;;8.57;74.66
22440;BME280;11387;51.612;7.210;2023-04-19T04:17:27;101787.47;;;8.42;75.12
22440;BME280;11387;51.612;7.210;2023-04-19T04:19:55;101783.53;;;8.33;75.27
22440;BME280;11387;51.612;7.210;2023-04-19T04:22:24;101777.88;;;8.18;75.19
22440;BME280;11387;51.612;7.210;2023-04-19T04:24:56;101785.50;;;8.16;75.12
22440;BME280;11387;51.612;7.210;2023-04-19T04:27:25;101793.84;;;8.09;75.03
22440;BME280;11387;51.612;7.210;2023-04-19T04:29:56;101791.38;;;8.08;75.42
22440;BME280;11387;51.612;7.210;2023-04-19T04:32:24;101786.88;;;7.97;75.39
22440;BME280;11387;51.612;7.210;2023-04-19T04:34:53;101784.22;;;8.02;74.56
22440;BME280;11387;51.612;7.210;2023-04-19T04:37:22;101790.97;;;7.99;73.58
22440;BME280;11387;51.612;7.210;2023-04-19T04:39:53;101790.72;;;8.01;73.16
22440;BME280;11387;51.612;7.210;2023-04-19T04:42:23;101791.13;;;7.88;72.60
22440;BME280;11387;51.612;7.210;2023-04-19T04:44:52;101782.13;;;7.87;72.46
22440;BME280;11387;51.612;7.210;2023-04-19T04:47:29;101784.03;;;7.87;71.93
22440;BME280;11387;51.612;7.210;2023-04-19T04:49:58;101783.94;;;7.82;71.15
22440;BME280;11387;51.612;7.210;2023-04-19T04:52:28;101786.09;;;7.80;70.62
22440;BME280;11387;51.612;7.210;2023-04-19T04:54:58;101795.84;;;7.75;69.72
22440;BME280;11387;51.612;7.210;2023-04-19T04:57:27;101802.44;;;7.80;68.78
22440;BME280;11387;51.612;7.210;2023-04-19T04:59:55;101789.25;;;7.71;68.26
22440;BME280;11387;51.612;7.210;2023-04-19T05:02:23;101793.13;;;7.75;67.78
22440;BME280;11387;51.612;7.210;2023-04-19T05:04:53;101804.53;;;7.72;67.17
22440;BME280;11387;51.612;7.210;2023-04-19T05:07:22;101801.28;;;7.75;66.65
22440;BME280;11387;51.612;7.210;2023-04-19T05:09:50;101803.94;;;7.70;65.52
22440;BME280;11387;51.612;7.210;2023-04-19T05:12:18;101806.09;;;7.68;65.61
22440;BME280;11387;51.612;7.210;2023-04-19T05:14:47;101796.34;;;7.72;64.84
22440;BME280;11387;51.612;7.210;2023-04-19T05:17:16;101802.22;;;7.64;63.24
22440;BME280;11387;51.612;7.210;2023-04-19T05:19:44;101805.09;;;7.74;62.17
22440;BME280;11387;51.612;7.210;2023-04-19T05:22:14;101800.28;;;7.82;61.45
22440;BME280;11387;51.612;7.210;2023-04-19T05:24:42;101802.44;;;7.80;60.83
22440;BME280;11387;51.612;7.210;2023-04-19T05:27:11;101810.19;;;7.88;60.63
22440;BME280;11387;51.612;7.210;2023-04-19T05:29:39;101799.47;;;8.03;59.54
22440;BME280;11387;51.612;7.210;2023-04-19T05:32:07;101797.75;;;7.97;59.30
22440;BME280;11387;51.612;7.210;2023-04-19T05:34:36;101799.94;;;7.95;58.44
22440;BME280;11387;51.612;7.210;2023-04-19T05:37:04;101795.03;;;7.97;57.28
22440;BME280;11387;51.612;7.210;2023-04-19T05:39:34;101793.09;;;8.14;57.72
22440;BME280;11387;51.612;7.210;2023-04-19T05:42:23;101800.59;;;8.46;56.66
22440;BME280;11387;51.612;7.210;2023-04-19T05:44:52;101801.72;;;8.50;56.02
22440;BME280;11387;51.612;7.210;2023-04-19T05:47:20;101786.50;;;8.54;55.80
22440;BME280;11387;51.612;7.210;2023-04-19T05:49:49;101789.81;;;8.56;56.07
22440;BME280;11387;51.612;7.210;2023-04-19T05:52:17;101785.56;;;8.70;55.63
22440;BME280;11387;51.612;7.210;2023-04-19T05:54:47;101787.72;;;8.68;55.74
22440;BME280;11387;51.612;7.210;2023-04-19T05:57:16;101791.34;;;8.47;55.81
22440;BME280;11387;51.612;7.210;2023-04-19T05:59:44;101788.03;;;8.44;56.76
22440;BME280;11387;51.612;7.210;2023-04-19T06:02:13;101795.44;;;8.49;56.68
22440;BME280;11387;51.612;7.210;2023-04-19T06:04:41;101789.69;;;8.46;55.66
22440;BME280;11387;51.612;7.210;2023-04-19T06:07:10;101803.94;;;8.53;55.08
22440;BME280;11387;51.612;7.210;2023-04-19T06:09:58;101798.38;;;8.42;54.55
22440;BME280;11387;51.612;7.210;2023-04-19T06:12:27;101793.31;;;8.56;54.02
22440;BME280;11387;51.612;7.210;2023-04-19T06:14:55;101798.94;;;8.44;54.09
22440;BME280;11387;51.612;7.210;2023-04-19T06:17:24;101803.25;;;8.40;54.34
22440;BME280;11387;51.612;7.210;2023-04-19T06:19:52;101798.81;;;8.34;54.47
22440;BME280;11387;51.612;7.210;2023-04-19T06:22:21;101794.06;;;8.25;54.37
22440;BME280;11387;51.612;7.210;2023-04-19T06:24:50;101802.09;;;8.36;55.01
22440;BME280;11387;51.612;7.210;2023-04-19T06:27:19;101797.81;;;8.40;53.65
22440;BME280;11387;51.612;7.210;2023-04-19T06:29:48;101803.06;;;8.25;54.48
22440;BME280;11387;51.612;7.210;2023-04-19T06:32:17;101798.97;;;8.28;54.49
22440;BME280;11387;51.612;7.210;2023-04-19T06:34:45;101797.47;;;8.37;54.34
22440;BME280;11387;51.612;7.210;2023-04-19T06:37:14;101796.22;;;8.44;53.54
22440;BME280;11387;51.612;7.210;2023-04-19T06:39:42;101796.72;;;8.41;53.08
22440;BME280;11387;51.612;7.210;2023-04-19T06:42:10;101808.78;;;8.46;53.44
22440;BME280;11387;51.612;7.210;2023-04-19T06:44:40;101800.09;;;8.49;53.36
22440;BME280;11387;51.612;7.210;2023-04-19T06:47:09;101803.44;;;8.56;53.01
22440;BME280;11387;51.612;7.210;2023-04-19T06:49:37;101793.38;;;8.61;52.29
22440;BME280;11387;51.612;7.210;2023-04-19T06:52:06;101799.44;;;8.41;52.83
22440;BME280;11387;51.612;7.210;2023-04-19T06:54:34;101787.41;;;8.37;52.31
22440;BME280;11387;51.612;7.210;2023-04-19T06:57:02;101785.38;;;8.50;52.64
22440;BME280;11387;51.612;7.210;2023-04-19T06:59:31;101792.47;;;8.77;51.69
22440;BME280;11387;51.612;7.210;2023-04-19T07:02:01;101798.28;;;8.86;51.10
22440;BME280;11387;51.612;7.210;2023-04-19T07:04:30;101801.16;;;9.01;51.68
22440;BME280;11387;51.612;7.210;2023-04-19T07:06:58;101791.78;;;8.65;50.98
22440;BME280;11387;51.612;7.210;2023-04-19T07:09:27;101796.88;;;8.57;51.97
22440;BME280;11387;51.612;7.210;2023-04-19T07:11:56;101793.25;;;8.73;52.42
22440;BME280;11387;51.612;7.210;2023-04-19T07:14:24;101799.63;;;8.84;51.81
22440;BME280;11387;51.612;7.210;2023-04-19T07:16:53;101792.13;;;9.01;51.40
22440;BME280;11387;51.612;7.210;2023-04-19T07:19:24;101801.75;;;9.08;50.28
22440;BME280;11387;51.612;7.210;2023-04-19T07:21:54;101791.13;;;9.44;50.50
22440;BME280;11387;51.612;7.210;2023-04-19T07:24:22;101805.25;;;9.36;49.86
22440;BME280;11387;51.612;7.210;2023-04-19T07:26:51;101796.50;;;9.34;49.65
22440;BME280;11387;51.612;7.210;2023-04-19T07:29:20;101797.94;;;9.09;50.25
22440;BME280;11387;51.612;7.210;2023-04-19T07:31:49;101804.34;;;9.62;49.58
22440;BME280;11387;51.612;7.210;2023-04-19T07:34:18;101801.19;;;10.28;47.72
22440;BME280;11387;51.612;7.210;2023-04-19T07:36:48;101810.38;;;11.50;44.40
22440;BME280;11387;51.612;7.210;2023-04-19T07:39:16;101801.03;;;11.76;43.66
22440;BME280;11387;51.612;7.210;2023-04-19T07:41:45;101802.00;;;12.21;42.53
22440;BME280;11387;51.612;7.210;2023-04-19T07:44:13;101784.03;;;13.56;40.54
22440;BME280;11387;51.612;7.210;2023-04-19T07:46:42;101791.72;;;14.07;38.65
22440;BME280;11387;51.612;7.210;2023-04-19T07:49:11;101802.53;;;14.46;36.54
22440;BME280;11387;51.612;7.210;2023-04-19T07:51:40;101793.66;;;14.30;36.83
22440;BME280;11387;51.612;7.210;2023-04-19T07:54:10;101800.13;;;14.82;35.93
22440;BME280;11387;51.612;7.210;2023-04-19T07:56:39;101787.28;;;16.16;34.39
22440;BME280;11387;51.612;7.210;2023-04-19T07:59:07;101796.94;;;17.58;32.49
22440;BME280;11387;51.612;7.210;2023-04-19T08:01:35;101789.78;;;18.44;30.81
22440;BME280;11387;51.612;7.210;2023-04-19T08:04:04;101790.50;;;18.10;30.73
22440;BME280;11387;51.612;7.210;2023-04-19T08:06:33;101798.13;;;19.31;29.65
22440;BME280;11387;51.612;7.210;2023-04-19T08:09:01;101800.03;;;18.35;30.22
22440;BME280;11387;51.612;7.210;2023-04-19T08:11:31;101792.56;;;17.88;30.35
22440;BME280;11387;51.612;7.210;2023-04-19T08:14:00;101786.38;;;18.56;30.04
22440;BME280;11387;51.612;7.210;2023-04-19T08:16:44;101802.25;;;16.65;30.53
22440;BME280;11387;51.612;7.210;2023-04-19T08:19:15;101792.44;;;18.58;28.52
22440;BME280;11387;51.612;7.210;2023-04-19T08:21:57;101796.72;;;18.16;29.58
22440;BME280;11387;51.612;7.210;2023-04-19T08:24:26;101793.28;;;18.02;29.80
22440;BME280;11387;51.612;7.210;2023-04-19T08:27:13;101803.38;;;15.68;31.50
22440;BME280;11387;51.612;7.210;2023-04-19T08:29:42;101800.03;;;16.26;31.47
22440;BME280;11387;51.612;7.210;2023-04-19T08:32:10;101794.28;;;15.02;33.37
22440;BME280;11387;51.612;7.210;2023-04-19T08:34:39;101793.06;;;16.42;30.76
22440;BME280;11387;51.612;7.210;2023-04-19T08:37:07;101802.59;;;16.22;31.45
22440;BME280;11387;51.612;7.210;2023-04-19T08:39:36;101800.16;;;15.47;32.14
22440;BME280;11387;51.612;7.210;2023-04-19T08:42:05;101791.13;;;15.28;33.45
22440;BME280;11387;51.612;7.210;2023-04-19T08:44:45;101794.72;;;15.09;33.60
22440;BME280;11387;51.612;7.210;2023-04-19T08:47:34;101799.06;;;16.71;31.86
22440;BME280;11387;51.612;7.210;2023-04-19T08:50:14;101792.75;;;16.43;31.01
22440;BME280;11387;51.612;7.210;2023-04-19T08:53:00;101797.56;;;16.24;31.18
22440;BME280;11387;51.612;7.210;2023-04-19T08:55:49;101804.75;;;15.98;32.15
22440;BME280;11387;51.612;7.210;2023-04-19T08:58:37;101797.81;;;16.14;31.47
22440;BME280;11387;51.612;7.210;2023-04-19T09:01:27;101783.81;;;18.03;29.70
22440;BME280;11387;51.612;7.210;2023-04-19T09:04:03;101797.47;;;19.34;28.42
22440;BME280;11387;51.612;7.210;2023-04-19T09:06:53;101793.00;;;19.76;27.07
22440;BME280;11387;51.612;7.210;2023-04-19T09:09:23;101786.22;;;19.39;28.08
22440;BME280;11387;51.612;7.210;2023-04-19T09:11:54;101786.56;;;17.94;29.17
22440;BME280;11387;51.612;7.210;2023-04-19T09:14:24;101783.72;;;18.25;28.26
22440;BME280;11387;51.612;7.210;2023-04-19T09:16:54;101778.34;;;18.37;28.14
22440;BME280;11387;51.612;7.210;2023-04-19T09:19:44;101782.44;;;18.40;27.13
22440;BME280;11387;51.612;7.210;2023-04-19T09:22:12;101783.44;;;18.52;27.17
22440;BME280;11387;51.612;7.210;2023-04-19T09:24:41;101784.31;;;15.99;29.97
22440;BME280;11387;51.612;7.210;2023-04-19T09:27:13;101775.09;;;18.35;27.38
22440;BME280;11387;51.612;7.210;2023-04-19T09:29:43;101776.00;;;18.62;26.68
22440;BME280;11387;51.612;7.210;2023-04-19T09:32:21;101772.56;;;16.70;29.95
22440;BME280;11387;51.612;7.210;2023-04-19T09:34:51;101773.91;;;16.95;29.06
22440;BME280;11387;51.612;7.210;2023-04-19T09:37:20;101773.88;;;16.59;30.15
22440;BME280;11387;51.612;7.210;2023-04-19T09:40:30;101759.72;;;17.10;27.78
22440;BME280;11387;51.612;7.210;2023-04-19T09:42:59;101765.97;;;16.30;28.99
22440;BME280;11387;51.612;7.210;2023-04-19T09:45:40;101768.88;;;16.11;30.59
22440;BME280;11387;51.612;7.210;2023-04-19T09:48:11;101750.25;;;17.34;29.18
22440;BME280;11387;51.612;7.210;2023-04-19T09:50:51;101757.72;;;16.16;29.79
22440;BME280;11387;51.612;7.210;2023-04-19T09:53:29;101754.03;;;17.38;29.62
22440;BME280;11387;51.612;7.210;2023-04-19T09:56:01;101748.13;;;17.93;28.45
22440;BME280;11387;51.612;7.210;2023-04-19T09:58:32;101743.78;;;16.22;28.80
22440;BME280;11387;51.612;7.210;2023-04-19T10:01:05;101736.50;;;17.51;28.17
22440;BME280;11387;51.612;7.210;2023-04-19T10:03:44;101744.00;;;16.75;29.40
22440;BME280;11387;51.612;7.210;2023-04-19T10:06:17;101742.56;;;17.00;28.03
22440;BME280;11387;51.612;7.210;2023-04-19T10:09:04;101729.03;;;18.91;27.42
22440;BME280;11387;51.612;7.210;2023-04-19T10:11:33;101724.50;;;20.80;25.33
22440;BME280;11387;51.612;7.210;2023-04-19T10:14:06;101719.66;;;22.04;23.22
22440;BME280;11387;51.612;7.210;2023-04-19T10:16:36;101731.41;;;18.41;26.25
22440;BME280;11387;51.612;7.210;2023-04-19T10:19:09;101734.50;;;18.22;26.92
22440;BME280;11387;51.612;7.210;2023-04-19T10:21:38;101730.13;;;18.30;27.62
22440;BME280;11387;51.612;7.210;2023-04-19T10:24:08;101730.56;;;19.27;26.13
22440;BME280;11387;51.612;7.210;2023-04-19T10:27:05;101730.94;;;18.99;26.30
22440;BME280;11387;51.612;7.210;2023-04-19T10:32:22;101706.91;;;20.26;24.94
22440;BME280;11387;51.612;7.210;2023-04-19T10:34:53;101695.53;;;19.60;25.64
22440;BME280;11387;51.612;7.210;2023-04-19T10:37:22;101708.63;;;18.78;26.63
22440;BME280;11387;51.612;7.210;2023-04-19T10:39:52;101712.38;;;18.74;26.84
22440;BME280;11387;51.612;7.210;2023-04-19T10:42:20;101701.06;;;18.01;26.90
22440;BME280;11387;51.612;7.210;2023-04-19T10:47:42;101694.28;;;18.85;25.75
22440;BME280;11387;51.612;7.210;2023-04-19T10:50:14;101687.97;;;20.70;23.83
22440;BME280;11387;51.612;7.210;2023-04-19T10:52:43;101691.91;;;21.59;22.71
22440;BME280;11387;51.612;7.210;2023-04-19T10:55:14;101675.69;;;22.78;22.15
22440;BME280;11387;51.612;7.210;2023-04-19T10:58:01;101675.88;;;23.44;21.76
22440;BME280;11387;51.612;7.210;2023-04-19T11:00:30;101669.88;;;21.66;21.83
22440;BME280;11387;51.612;7.210;2023-04-19T11:02:59;101659.28;;;23.51;20.55
22440;BME280;11387;51.612;7.210;2023-04-19T11:08:33;101655.53;;;27.02;16.56
22440;BME280;11387;51.612;7.210;2023-04-19T11:11:01;101651.59;;;25.11;17.34
22440;BME280;11387;51.612;7.210;2023-04-19T11:13:30;101668.09;;;21.86;20.53
22440;BME280;11387;51.612;7.210;2023-04-19T11:16:06;101668.13;;;23.69;19.29
22440;BME280;11387;51.612;7.210;2023-04-19T11:18:35;101660.06;;;25.15;17.92
22440;BME280;11387;51.612;7.210;2023-04-19T11:21:03;101654.56;;;25.94;17.31
22440;BME280;11387;51.612;7.210;2023-04-19T11:23:33;101643.56;;;25.33;17.57
22440;BME280;11387;51.612;7.210;2023-04-19T11:26:02;101640.50;;;25.64;17.75
22440;BME280;11387;51.612;7.210;2023-04-19T11:28:31;101650.47;;;23.18;20.62
22440;BME280;11387;51.612;7.210;2023-04-19T11:31:03;101638.84;;;24.72;18.67
22440;BME280;11387;51.612;7.210;2023-04-19T11:33:32;101636.22;;;22.92;20.30
22440;BME280;11387;51.612;7.210;2023-04-19T11:36:00;101629.13;;;21.62;21.77
22440;BME280;11387;51.612;7.210;2023-04-19T11:38:29;101631.81;;;23.06;20.44
22440;BME280;11387;51.612;7.210;2023-04-19T11:40:59;101631.34;;;24.02;19.58
22440;BME280;11387;51.612;7.210;2023-04-19T11:43:31;101628.16;;;20.64;21.69
22440;BME280;11387;51.612;7.210;2023-04-19T11:46:03;101612.56;;;22.45;20.92
22440;BME280;11387;51.612;7.210;2023-04-19T11:48:33;101608.78;;;21.73;21.40
22440;BME280;11387;51.612;7.210;2023-04-19T11:51:01;101617.34;;;22.45;20.82
22440;BME280;11387;51.612;7.210;2023-04-19T11:53:30;101608.66;;;21.94;21.81
22440;BME280;11387;51.612;7.210;2023-04-19T11:56:04;101615.22;;;21.62;21.63
22440;BME280;11387;51.612;7.210;2023-04-19T11:58:35;101598.88;;;22.40;21.10
22440;BME280;11387;51.612;7.210;2023-04-19T12:01:04;101604.25;;;22.33;20.70
22440;BME280;11387;51.612;7.210;2023-04-19T12:03:33;101587.16;;;20.73;21.76
22440;BME280;11387;51.612;7.210;2023-04-19T12:06:02;101583.25;;;21.71;20.84
22440;BME280;11387;51.612;7.210;2023-04-19T12:08:36;101606.38;;;21.23;21.21
22440;BME280;11387;51.612;7.210;2023-04-19T12:11:07;101585.03;;;21.64;21.23
22440;BME280;11387;51.612;7.210;2023-04-19T12:13:36;101585.13;;;21.79;21.16
22440;BME280;11387;51.612;7.210;2023-04-19T12:16:07;101565.56;;;20.04;22.75
22440;BME280;11387;51.612;7.210;2023-04-19T12:18:42;101572.06;;;19.66;22.93
22440;BME280;11387;51.612;7.210;2023-04-19T12:21:22;101581.19;;;19.37;23.81
22440;BME280;11387;51.612;7.210;2023-04-19T12:23:55;101580.75;;;19.86;23.92
22440;BME280;11387;51.612;7.210;2023-04-19T12:26:25;101581.81;;;20.80;22.85
22440;BME280;11387;51.612;7.210;2023-04-19T12:28:59;101576.03;;;20.85;22.85
22440;BME280;11387;51.612;7.210;2023-04-19T12:31:29;101560.81;;;22.32;21.96
22440;BME280;11387;51.612;7.210;2023-04-19T12:33:58;101567.91;;;22.73;21.47
22440;BME280;11387;51.612;7.210;2023-04-19T12:36:26;101549.50;;;25.32;18.15
22440;BME280;11387;51.612;7.210;2023-04-19T12:38:56;101553.63;;;24.92;18.04
22440;BME280;11387;51.612;7.210;2023-04-19T12:41:26;101548.59;;;26.40;17.31
22440;BME280;11387;51.612;7.210;2023-04-19T12:43:55;101545.50;;;25.59;17.46
22440;BME280;11387;51.612;7.210;2023-04-19T12:46:23;101544.78;;;23.36;19.54
22440;BME280;11387;51.612;7.210;2023-04-19T12:48:54;101541.41;;;22.95;19.92
22440;BME280;11387;51.612;7.210;2023-04-19T12:51:23;101548.78;;;23.03;20.30
22440;BME280;11387;51.612;7.210;2023-04-19T12:53:52;101542.13;;;23.94;19.59
22440;BME280;11387;51.612;7.210;2023-04-19T12:56:21;101536.56;;;23.59;19.38
22440;BME280;11387;51.612;7.210;2023-04-19T12:58:52;101544.72;;;23.01;19.62
22440;BME280;11387;51.612;7.210;2023-04-19T13:01:20;101532.88;;;21.89;20.11
22440;BME280;11387;51.612;7.210;2023-04-19T13:03:49;101536.84;;;24.08;19.91
22440;BME280;11387;51.612;7.210;2023-04-19T13:06:18;101519.63;;;22.26;20.58
22440;BME280;11387;51.612;7.210;2023-04-19T13:08:46;101534.44;;;22.73;19.96
22440;BME280;11387;51.612;7.210;2023-04-19T13:11:15;101522.41;;;22.85;19.17
22440;BME280;11387;51.612;7.210;2023-04-19T13:13:49;101517.25;;;23.18;18.66
22440;BME280;11387;51.612;7.210;2023-04-19T13:16:20;101512.72;;;23.30;18.83
22440;BME280;11387;51.612;7.210;2023-04-19T13:18:49;101514.09;;;21.73;20.54
22440;BME280;11387;51.612;7.210;2023-04-19T13:21:35;101508.84;;;21.32;21.00